Time;durP1;ratioP1;P1;durP2;ratioP2;P2;SDS_P1;SDS_P2;PMS_P1;PMS_P2;Temp;Humidity;BMP_temperature;BMP_pressure;BME280_temperature;BME280_humidity;BME280_pressure;Samples;Min_cycle;Max_cycle;Signal;HPM_P1;HPM_P2
2022/02/20 00:01:41;;;;;;;12.73;3.53;;;;;;;3.06;81.19;100131.00;5135595;56;1136808;-69
2022/02/20 00:06:47;;;;;;;22.67;7.27;;;;;;;3.04;81.37;100126.34;5053193;56;1136771;-69
2022/02/20 00:11:52;;;;;;;13.73;5.20;;;;;;;2.98;81.60;100126.19;5053207;56;1136866;-70
2022/02/20 00:16:58;;;;;;;11.07;3.50;;;;;;;2.97;81.64;100119.28;5059798;56;1136745;-67
2022/02/20 00:22:04;;;;;;;19.70;5.58;;;;;;;2.94;81.61;100126.42;5119622;56;1136726;-68
2022/02/20 00:27:10;;;;;;;14.23;4.80;;;;;;;2.94;81.76;100117.28;5121022;56;1136788;-69
2022/02/20 00:32:15;;;;;;;16.20;4.50;;;;;;;2.95;81.94;100113.28;5120759;56;1136738;-69
2022/02/20 00:37:21;;;;;;;15.67;3.70;;;;;;;2.95;81.82;100103.30;5121113;56;1136589;-69
2022/02/20 00:42:27;;;;;;;19.20;5.00;;;;;;;2.95;81.92;100101.53;5121026;56;1136506;-68
2022/02/20 00:47:33;;;;;;;15.23;4.53;;;;;;;2.95;81.74;100091.55;5116663;56;1136695;-69
2022/02/20 00:52:39;;;;;;;12.73;3.93;;;;;;;2.96;81.76;100088.01;5120998;56;1136633;-68
2022/02/20 00:57:45;;;;;;;10.93;4.07;;;;;;;2.95;81.66;100075.41;5121423;56;1136662;-69
2022/02/20 01:02:51;;;;;;;12.17;3.57;;;;;;;2.90;81.62;100068.30;5104989;56;1136707;-68
2022/02/20 01:07:57;;;;;;;10.58;3.12;;;;;;;2.91;81.64;100066.05;5056649;57;1136840;-67
2022/02/20 01:13:04;;;;;;;11.63;3.45;;;;;;;2.91;81.62;100054.75;5056864;56;1136859;-67
2022/02/20 01:18:09;;;;;;;13.08;3.15;;;;;;;2.92;81.69;100055.98;5056836;57;1136757;-69
2022/02/20 01:23:15;;;;;;;11.30;3.53;;;;;;;2.93;81.57;100045.91;5052364;57;1136598;-69
2022/02/20 01:28:21;;;;;;;10.58;3.67;;;;;;;2.92;81.79;100037.70;5052667;57;1136626;-68
2022/02/20 01:33:27;;;;;;;9.33;3.10;;;;;;;2.92;81.94;100031.16;4982919;57;1136731;-68
2022/02/20 01:38:33;;;;;;;13.07;3.60;;;;;;;2.94;82.00;100018.02;4971650;57;1134513;-69
2022/02/20 01:43:40;;;;;;;10.47;3.20;;;;;;;2.95;82.03;100007.50;4971465;57;1136578;-67
2022/02/20 01:48:48;;;;;;;8.13;2.77;;;;;;;2.96;82.12;99993.52;4972187;57;1136773;-69
2022/02/20 01:53:56;;;;;;;12.23;3.20;;;;;;;2.99;82.34;99987.28;4972708;57;1134363;-68
2022/02/20 01:59:03;;;;;;;17.82;5.95;;;;;;;2.96;82.25;99980.92;4971792;57;1134697;-69
2022/02/20 02:04:16;;;;;;;14.30;2.90;;;;;;;3.00;82.61;99970.69;4932002;58;1134579;-68
2022/02/20 02:09:24;;;;;;;8.57;2.40;;;;;;;3.00;82.71;99957.63;4988476;58;1134649;-69
2022/02/20 02:14:55;;;;;;;7.00;2.67;;;;;;;3.02;82.97;99951.39;4970214;58;1132630;-68
2022/02/20 02:20:19;;;;;;;8.73;2.35;;;;;;;3.05;83.11;99942.55;4971401;58;1132805;-69
2022/02/20 02:25:35;;;;;;;8.38;2.87;;;;;;;3.08;83.40;99931.44;4923721;58;1132863;-68
2022/02/20 02:30:52;;;;;;;6.83;2.80;;;;;;;3.13;83.33;99920.73;4832684;58;1132627;-67
2022/02/20 02:35:59;;;;;;;8.85;3.00;;;;;;;3.17;83.33;99917.03;4965033;58;1132521;-66
2022/02/20 02:41:09;;;;;;;7.78;3.05;;;;;;;3.20;83.43;99916.02;4979842;58;1132493;-68
2022/02/20 02:46:17;;;;;;;8.13;2.57;;;;;;;3.16;83.48;99901.82;4979955;58;1132621;-67
2022/02/20 02:51:23;;;;;;;9.10;2.43;;;;;;;3.22;83.63;99904.53;4979749;58;1132634;-67
2022/02/20 02:56:29;;;;;;;7.43;2.63;;;;;;;3.23;85.46;99906.22;4979595;58;1132842;-69
2022/02/20 03:01:35;;;;;;;7.37;2.17;;;;;;;3.16;90.23;99898.36;4979581;58;1132830;-67
2022/02/20 03:06:40;;;;;;;9.20;2.90;;;;;;;3.05;92.79;99887.23;4979545;58;1132607;-68
2022/02/20 03:11:47;;;;;;;7.93;1.93;;;;;;;2.99;94.25;99887.56;4979505;58;1132592;-67
2022/02/20 03:16:55;;;;;;;7.78;1.75;;;;;;;2.88;97.75;99881.27;4983092;58;1132627;-68
2022/02/20 03:22:02;;;;;;;7.28;2.20;;;;;;;2.79;99.33;99879.99;4994594;57;1132600;-68
2022/02/20 03:27:10;;;;;;;8.37;2.33;;;;;;;2.74;100.00;99878.97;5061027;57;1132576;-67
2022/02/20 03:32:17;;;;;;;6.53;2.03;;;;;;;2.71;99.54;99873.91;5060360;57;1134885;-67
2022/02/20 03:37:25;;;;;;;11.80;2.50;;;;;;;2.72;100.00;99869.06;5060723;57;1132807;-68
2022/02/20 03:42:31;;;;;;;10.47;2.57;;;;;;;2.68;100.00;99862.33;5059930;57;1136971;-66
2022/02/20 03:47:38;;;;;;;11.57;2.13;;;;;;;2.69;100.00;99852.27;5043475;57;1136689;-68
2022/02/20 03:52:45;;;;;;;6.03;2.50;;;;;;;2.71;100.00;99841.27;5059966;57;1136800;-69
2022/02/20 03:57:53;;;;;;;7.00;2.37;;;;;;;2.73;100.00;99834.20;5060281;57;1134731;-67
2022/02/20 04:03:00;;;;;;;5.27;1.97;;;;;;;2.78;100.00;99816.95;5056882;56;1134825;-67
2022/02/20 04:08:06;;;;;;;8.73;2.20;;;;;;;2.84;100.00;99816.61;5079725;56;1134657;-69
2022/02/20 04:13:12;;;;;;;8.38;2.30;;;;;;;2.85;100.00;99817.45;5063956;57;1134723;-67
2022/02/20 04:18:22;;;;;;;10.37;2.73;;;;;;;2.90;100.00;99807.59;5064078;56;1134540;-69
2022/02/20 04:23:35;;;;;;;;;;;;;;;2.98;100.00;99811.44;5058188;56;1136610;-66
2022/02/20 04:28:40;;;;;;;8.50;3.33;;;;;;;3.07;100.00;99793.06;5080372;57;971843;-66
2022/02/20 04:33:48;;;;;;;4.83;1.97;;;;;;;3.07;100.00;99793.06;5034989;56;1132499;-68
2022/02/20 04:38:54;;;;;;;7.27;2.10;;;;;;;3.04;100.00;99797.19;5065175;56;1134612;-69
2022/02/20 04:44:01;;;;;;;7.22;1.92;;;;;;;2.92;100.00;99786.13;5064198;57;1138487;-67
2022/02/20 04:49:09;;;;;;;21.97;2.87;;;;;;;2.86;100.00;99792.56;5063895;56;1134608;-66
2022/02/20 04:54:32;;;;;;;55.83;20.10;;;;;;;2.72;100.00;99777.69;5064228;56;1179933;-67
2022/02/20 04:59:38;;;;;;;30.13;12.10;;;;;;;2.71;100.00;99772.09;5064980;56;1138718;-69
2022/02/20 05:04:46;;;;;;;13.77;3.87;;;;;;;2.79;100.00;99764.64;5026202;56;1139000;-69
2022/02/20 05:09:53;;;;;;;6.13;2.00;;;;;;;2.81;100.00;99754.11;5043406;57;1136574;-67
2022/02/20 05:14:59;;;;;;;7.83;3.80;;;;;;;2.76;100.00;99752.22;5043839;57;1134658;-66
2022/02/20 05:20:11;;;;;;;14.93;4.33;;;;;;;2.67;100.00;99744.47;5043756;56;1134743;-68
2022/02/20 05:25:17;;;;;;;18.13;6.70;;;;;;;2.62;100.00;99733.89;5043652;57;1136843;-67
2022/02/20 05:30:23;;;;;;;10.05;3.17;;;;;;;2.57;100.00;99723.75;4987310;56;1136800;-69
2022/02/20 05:35:30;;;;;;;7.20;2.33;;;;;;;2.50;100.00;99722.40;4981389;56;1137171;-69
2022/02/20 05:40:36;;;;;;;5.75;3.15;;;;;;;2.36;100.00;99719.73;4982144;57;1134665;-68
2022/02/20 05:45:44;;;;;;;8.93;2.47;;;;;;;2.29;100.00;99706.19;4982037;56;1134708;-69
2022/02/20 05:50:54;;;;;;;10.53;3.50;;;;;;;2.28;100.00;99703.69;4988120;56;1134717;-70
2022/02/20 05:56:00;;;;;;;6.17;2.53;;;;;;;2.29;100.00;99706.67;5075834;56;1136748;-70
2022/02/20 06:01:08;;;;;;;15.90;6.10;;;;;;;2.26;100.00;99701.16;5000969;56;1134680;-67
2022/02/20 06:06:15;;;;;;;15.57;4.60;;;;;;;2.20;100.00;99694.98;4937971;58;1136942;-68
2022/02/20 06:11:38;;;;;;;9.30;4.87;;;;;;;2.20;100.00;99682.39;4890533;58;1136741;-67
2022/02/20 06:16:46;;;;;;;11.83;3.87;;;;;;;2.22;100.00;99681.39;4860985;58;1134846;-70
2022/02/20 06:21:56;;;;;;;9.03;3.47;;;;;;;2.22;100.00;99675.33;4868534;58;1136883;-68
2022/02/20 06:27:06;;;;;;;6.50;1.80;;;;;;;2.26;100.00;99674.23;4963800;57;1134656;-68
2022/02/20 06:32:13;;;;;;;6.03;2.10;;;;;;;2.22;100.00;99670.95;4874178;59;1134832;-69
2022/02/20 06:37:19;;;;;;;6.47;2.93;;;;;;;2.23;100.00;99669.18;5090328;55;1134527;-69
2022/02/20 06:42:25;;;;;;;5.93;2.63;;;;;;;2.27;100.00;99675.91;5125105;56;1134649;-67
2022/02/20 06:47:33;;;;;;;5.87;2.40;;;;;;;2.26;100.00;99675.08;5120004;56;1134845;-69
2022/02/20 06:52:43;;;;;;;5.17;2.33;;;;;;;2.29;100.00;99677.98;5119309;56;1134770;-70
2022/02/20 06:58:01;;;;;;;3.43;2.13;;;;;;;2.31;100.00;99674.79;5075514;56;1134715;-68
2022/02/20 07:03:07;;;;;;;12.47;2.13;;;;;;;2.40;100.00;99675.13;5103494;56;1134812;-67
2022/02/20 07:08:13;;;;;;;7.03;2.50;;;;;;;2.40;100.00;99675.13;5050252;56;1136825;-68
2022/02/20 07:13:19;;;;;;;15.17;5.10;;;;;;;2.43;100.00;99674.11;5052139;56;1134843;-68
2022/02/20 07:18:25;;;;;;;2.92;2.50;;;;;;;2.48;100.00;99678.58;5055577;55;1136924;-70
2022/02/20 07:23:31;;;;;;;13.30;7.27;;;;;;;2.48;100.00;99674.20;5055826;56;1134770;-68
2022/02/20 07:28:37;;;;;;;16.13;6.57;;;;;;;2.50;100.00;99674.58;5056120;55;1136613;-70
2022/02/20 07:33:46;;;;;;;9.37;5.80;;;;;;;2.50;100.00;99676.73;5029266;55;1136799;-68
2022/02/20 07:38:52;;;;;;;8.13;4.00;;;;;;;2.54;100.00;99685.23;5033113;56;1134516;-67
2022/02/20 07:43:57;;;;;;;7.63;6.80;;;;;;;2.54;100.00;99686.06;5032826;56;1134449;-67
2022/02/20 07:49:04;;;;;;;8.13;5.20;;;;;;;2.55;100.00;99687.75;5084521;56;1134664;-70
2022/02/20 07:54:10;;;;;;;9.28;5.45;;;;;;;2.47;100.00;99680.81;5104647;56;1134621;-67
2022/02/20 07:59:16;;;;;;;27.27;23.00;;;;;;;2.62;100.00;99701.27;5051772;57;1134715;-70
2022/02/20 08:04:22;;;;;;;53.55;42.90;;;;;;;2.60;100.00;99691.41;5063822;56;1139120;-69
2022/02/20 08:09:28;;;;;;;74.03;49.37;;;;;;;2.56;100.00;99686.83;5098706;56;1138726;-70
2022/02/20 08:14:34;;;;;;;11.93;10.73;;;;;;;2.63;100.00;99704.26;5023125;56;1138853;-68
2022/02/20 08:19:40;;;;;;;10.27;9.17;;;;;;;2.59;100.00;99711.45;5102656;56;1138569;-69
2022/02/20 08:24:46;;;;;;;25.07;21.23;;;;;;;2.60;100.00;99707.07;5049541;57;1136525;-69
2022/02/20 08:29:54;;;;;;;42.20;15.53;;;;;;;2.63;100.00;99712.93;5050420;56;1138686;-69
2022/02/20 08:34:59;;;;;;;22.47;8.67;;;;;;;2.62;100.00;99713.02;5058649;56;1138966;-69
2022/02/20 08:40:07;;;;;;;28.90;8.80;;;;;;;2.65;100.00;99719.37;5092125;56;1146185;-68
2022/02/20 08:45:16;;;;;;;7.17;3.75;;;;;;;2.68;100.00;99720.04;5050469;56;1136781;-68
2022/02/20 08:50:22;;;;;;;2.58;2.37;;;;;;;2.72;100.00;99726.77;5051498;56;1134583;-67
2022/02/20 08:55:28;;;;;;;8.37;4.57;;;;;;;2.76;100.00;99735.25;5035687;56;1134504;-69
2022/02/20 09:00:34;;;;;;;18.57;5.97;;;;;;;2.77;100.00;99740.38;5096326;55;1134660;-69
2022/02/20 09:05:41;;;;;;;17.00;7.90;;;;;;;2.76;100.00;99745.69;5070563;56;1136600;-69
2022/02/20 09:10:48;;;;;;;6.67;2.10;;;;;;;2.75;100.00;99759.70;5062149;57;1136775;-70
2022/02/20 09:15:54;;;;;;;2.07;1.87;;;;;;;2.75;100.00;99759.20;5074372;56;1134746;-70
2022/02/20 09:20:59;;;;;;;3.53;2.23;;;;;;;2.73;100.00;99759.79;5062534;56;1134894;-71
2022/02/20 09:26:06;;;;;;;8.13;4.50;;;;;;;2.76;100.00;99770.50;5079288;56;1134981;-70
2022/02/20 09:31:12;;;;;;;71.40;38.10;;;;;;;2.80;100.00;99779.84;5139122;56;1134674;-69
2022/02/20 09:36:18;;;;;;;108.12;49.65;;;;;;;2.85;100.00;99780.89;5133147;56;1139040;-69
2022/02/20 09:41:31;;;;;;;127.63;76.60;;;;;;;2.89;100.00;99785.02;5129411;56;1140818;-67
2022/02/20 09:46:39;;;;;;;60.30;40.90;;;;;;;2.92;100.00;99790.88;5137314;56;1141011;-69
2022/02/20 09:51:45;;;;;;;35.40;25.23;;;;;;;2.98;100.00;99792.31;5139942;56;1138799;-69
2022/02/20 09:56:52;;;;;;;5.23;4.73;;;;;;;3.05;100.00;99791.88;5166894;55;1138919;-67
2022/02/20 10:02:10;;;;;;;3.00;2.80;;;;;;;3.07;100.00;99808.28;5140285;56;1135474;-67
2022/02/20 10:07:35;;;;;;;3.45;1.92;;;;;;;3.10;100.00;99802.04;5074965;56;1134644;-70
2022/02/20 10:12:41;;;;;;;2.92;2.70;;;;;;;3.14;100.00;99807.00;5055440;56;1134779;-67
2022/02/20 10:17:47;;;;;;;2.03;1.90;;;;;;;3.17;100.00;99812.05;5064705;56;1134654;-69
2022/02/20 10:23:15;;;;;;;8.60;4.85;;;;;;;3.17;100.00;99802.91;5101137;56;1134692;-67
2022/02/20 10:28:40;;;;;;;2.30;2.07;;;;;;;3.22;100.00;99810.92;5110732;55;1134615;-67
2022/02/20 10:33:51;;;;;;;8.25;4.42;;;;;;;3.19;100.00;99806.75;5065066;56;1134840;-69
2022/02/20 10:38:57;;;;;;;13.93;5.08;;;;;;;3.22;100.00;99812.23;5024062;56;1135329;-67
2022/02/20 10:44:03;;;;;;;357.55;88.17;;;;;;;3.23;100.00;99824.36;5065015;56;1137002;-71
2022/02/20 10:49:11;;;;;;;500.72;129.53;;;;;;;3.21;100.00;99821.84;5109666;56;1143821;-67
2022/02/20 10:54:17;;;;;;;232.13;70.13;;;;;;;3.22;100.00;99823.98;5119938;56;1143111;-67
2022/02/20 10:59:24;;;;;;;353.05;97.97;;;;;;;3.24;100.00;99831.27;5127868;55;1141375;-70
2022/02/20 11:04:29;;;;;;;155.80;46.47;;;;;;;3.26;100.00;99824.19;5095539;55;1140826;-69
2022/02/20 11:09:35;;;;;;;188.57;63.80;;;;;;;3.27;100.00;99831.11;5099492;55;1140775;-67
2022/02/20 11:14:41;;;;;;;41.37;17.47;;;;;;;3.25;100.00;99818.13;5193152;55;1140966;-69
2022/02/20 11:19:47;;;;;;;14.65;6.65;;;;;;;3.31;100.00;99823.00;5218457;55;1138817;-68
2022/02/20 11:24:53;;;;;;;21.17;10.88;;;;;;;3.31;100.00;99824.78;5218388;55;1136721;-67
2022/02/20 11:29:59;;;;;;;3.83;3.40;;;;;;;3.32;100.00;99825.99;5206207;55;1138751;-67
2022/02/20 11:35:09;;;;;;;3.50;2.87;;;;;;;3.33;100.00;99830.29;5024525;56;1134730;-70
2022/02/20 11:40:16;;;;;;;2.42;1.95;;;;;;;3.35;100.00;99831.52;4854938;58;1134869;-69
2022/02/20 11:45:22;;;;;;;5.55;4.33;;;;;;;3.37;100.00;99836.16;4939432;58;1134727;-69
2022/02/20 11:50:32;;;;;;;70.07;36.00;;;;;;;3.39;100.00;99827.77;4980280;58;1134645;-67
2022/02/20 11:55:42;;;;;;;30.07;17.37;;;;;;;3.42;100.00;99821.05;4946120;58;1138905;-69
2022/02/20 12:01:03;;;;;;;64.03;15.90;;;;;;;3.44;100.00;99816.12;4877373;58;1138672;-69
2022/02/20 12:06:20;;;;;;;56.47;11.50;;;;;;;3.48;100.00;99812.39;4990674;57;1140785;-68
2022/02/20 12:11:32;;;;;;;8.10;4.00;;;;;;;3.56;100.00;99804.55;4909863;58;1138884;-68
2022/02/20 12:16:39;;;;;;;14.80;4.47;;;;;;;3.66;100.00;99803.08;4902332;59;1135098;-69
2022/02/20 12:22:00;;;;;;;32.37;8.27;;;;;;;3.72;100.00;99806.14;4938814;57;1136625;-66
2022/02/20 12:27:08;;;;;;;38.93;9.83;;;;;;;3.77;100.00;99803.25;4982466;57;1136772;-68
2022/02/20 12:32:20;;;;;;;38.97;9.53;;;;;;;3.87;100.00;99803.05;4982475;57;1136649;-69
2022/02/20 12:37:33;;;;;;;41.57;11.67;;;;;;;3.95;100.00;99802.59;4968106;57;1137054;-72
2022/02/20 12:42:57;;;;;;;315.10;95.40;;;;;;;3.97;100.00;99797.66;5023339;57;1139310;-70
2022/02/20 12:48:07;;;;;;;183.67;54.07;;;;;;;3.99;100.00;99794.91;4990255;57;1140948;-69
2022/02/20 12:53:13;;;;;;;49.93;16.32;;;;;;;4.00;100.00;99794.81;4981813;58;1141218;-69
2022/02/20 12:58:21;;;;;;;197.75;68.25;;;;;;;4.00;100.00;99792.67;4981929;58;1138940;-70
2022/02/20 13:03:26;;;;;;;246.00;73.73;;;;;;;4.01;100.00;99789.96;5011286;57;1140856;-69
2022/02/20 13:08:33;;;;;;;123.00;39.80;;;;;;;4.05;100.00;99780.15;5062995;56;1141013;-70
2022/02/20 13:13:39;;;;;;;35.58;14.93;;;;;;;4.10;100.00;99778.09;5063099;56;1141015;-70
2022/02/20 13:18:46;;;;;;;9.33;4.60;;;;;;;4.17;100.00;99767.13;5096029;56;1139140;-68
2022/02/20 13:23:52;;;;;;;12.87;6.83;;;;;;;4.22;100.00;99767.69;5145790;56;1134647;-69
2022/02/20 13:29:00;;;;;;;15.73;6.57;;;;;;;4.24;100.00;99758.44;5058901;56;1137322;-69
2022/02/20 13:34:08;;;;;;;14.48;5.40;;;;;;;4.23;100.00;99742.36;5074212;56;1136820;-70
2022/02/20 13:39:16;;;;;;;6.67;4.30;;;;;;;4.27;100.00;99730.77;5084850;55;1136809;-69
2022/02/20 13:44:33;;;;;;;4.72;2.95;;;;;;;4.32;100.00;99721.28;5046282;56;1134798;-68
2022/02/20 13:49:50;;;;;;;4.33;2.62;;;;;;;4.34;100.00;99716.80;4974478;57;1134836;-70
2022/02/20 13:54:55;;;;;;;11.43;5.17;;;;;;;4.35;100.00;99710.16;4971241;58;1134930;-68
2022/02/20 14:00:07;;;;;;;11.27;3.97;;;;;;;4.39;100.00;99701.17;5028958;56;1137244;-69
2022/02/20 14:05:25;;;;;;;32.03;8.17;;;;;;;4.41;100.00;99695.38;5053699;56;1136821;-67
2022/02/20 14:10:32;;;;;;;336.87;85.55;;;;;;;4.47;100.00;99682.33;5055394;56;1136817;-68
2022/02/20 14:15:38;;;;;;;126.90;32.47;;;;;;;4.52;100.00;99674.55;5119866;56;1141227;-68
2022/02/20 14:20:51;;;;;;;71.57;26.20;;;;;;;4.58;100.00;99664.15;5052321;56;1140790;-69
2022/02/20 14:26:03;;;;;;;15.40;6.67;;;;;;;4.64;100.00;99660.27;5073862;56;1138890;-68
2022/02/20 14:31:23;;;;;;;30.02;10.18;;;;;;;4.68;100.00;99648.65;5065529;56;1136814;-68
2022/02/20 14:36:34;;;;;;;17.60;7.27;;;;;;;4.68;100.00;99642.10;5057759;56;1138918;-69
2022/02/20 14:41:39;;;;;;;;;;;;;;;4.70;100.00;99636.30;5017823;56;1136584;-68
2022/02/20 14:46:45;;;;;;;8.93;4.50;;;;;;;4.73;100.00;99603.36;5057573;57;971917;-68
2022/02/20 14:51:51;;;;;;;13.33;5.50;;;;;;;4.73;100.00;99603.36;5028418;57;1132596;-70
2022/02/20 14:56:59;;;;;;;21.27;9.20;;;;;;;4.77;100.00;99593.01;5054380;56;1137263;-70
2022/02/20 15:02:05;;;;;;;10.10;6.73;;;;;;;4.76;100.00;99588.23;5021277;57;1136851;-68
2022/02/20 15:07:14;;;;;;;6.35;3.50;;;;;;;4.77;100.00;99584.68;4983904;57;1136837;-68
2022/02/20 15:12:20;;;;;;;49.35;23.40;;;;;;;4.79;100.00;99576.72;4986219;57;1136850;-68
2022/02/20 15:17:26;;;;;;;11.45;7.12;;;;;;;4.77;100.00;99558.95;5057210;56;1139045;-68
2022/02/20 15:22:32;;;;;;;10.87;6.77;;;;;;;4.81;100.00;99554.72;5004957;57;1136806;-68
2022/02/20 15:27:38;;;;;;;5.73;4.07;;;;;;;4.83;100.00;99535.81;5046229;56;1136823;-70
2022/02/20 15:32:47;;;;;;;10.83;6.97;;;;;;;4.85;100.00;99519.52;5033871;56;1136762;-70
2022/02/20 15:37:53;;;;;;;9.97;3.73;;;;;;;4.84;100.00;99503.91;5060687;57;1137055;-67
2022/02/20 15:42:58;;;;;;;25.50;11.00;;;;;;;4.86;100.00;99482.37;5056948;57;1249667;-70
2022/02/20 15:48:05;;;;;;;17.30;10.60;;;;;;;4.85;100.00;99475.45;5059935;56;1140869;-68
2022/02/20 15:53:13;;;;;;;19.67;9.70;;;;;;;4.85;100.00;99463.19;5059282;56;1141126;-68
2022/02/20 15:58:22;;;;;;;26.27;9.60;;;;;;;4.82;100.00;99467.33;4971190;56;1136865;-69
2022/02/20 16:03:28;;;;;;;53.90;20.47;;;;;;;4.78;100.00;99454.08;4999123;57;1136909;-67
2022/02/20 16:08:34;;;;;;;8.40;4.63;;;;;;;4.78;100.00;99441.45;5018335;57;1140864;-68
2022/02/20 16:13:39;;;;;;;17.73;6.90;;;;;;;4.78;100.00;99428.36;4942257;56;1136879;-69
2022/02/20 16:18:45;;;;;;;20.20;7.87;;;;;;;4.75;100.00;99407.14;4902118;58;1136654;-70
2022/02/20 16:23:51;;;;;;;37.33;16.27;;;;;;;4.75;100.00;99407.14;4879299;58;1138837;-69
2022/02/20 16:28:57;;;;;;;22.07;7.03;;;;;;;4.74;100.00;99394.99;4948261;57;1140967;-69
2022/02/20 16:34:03;;;;;;;34.50;12.60;;;;;;;4.70;100.00;99396.66;5026463;57;1136949;-69
2022/02/20 16:39:08;;;;;;;26.55;9.45;;;;;;;4.67;100.00;99375.44;4894806;57;1139225;-70
2022/02/20 16:44:14;;;;;;;19.27;9.13;;;;;;;4.66;100.00;99364.60;4997359;57;1136982;-70
2022/02/20 16:49:20;;;;;;;12.68;5.80;;;;;;;4.67;100.00;99353.66;4963061;57;1138863;-70
2022/02/20 16:54:28;;;;;;;10.73;5.20;;;;;;;4.67;100.00;99336.63;5062360;56;1136846;-69
2022/02/20 16:59:33;;;;;;;11.35;3.70;;;;;;;4.68;100.00;99312.12;5145058;56;1138827;-69
2022/02/20 17:04:39;;;;;;;17.50;8.40;;;;;;;4.68;100.00;99314.73;5127299;56;1138794;-69
2022/02/20 17:09:45;;;;;;;17.47;5.97;;;;;;;4.68;100.00;99289.38;5145684;56;1138849;-69
2022/02/20 17:14:51;;;;;;;22.57;9.00;;;;;;;4.70;100.00;99284.04;5132722;56;1138796;-68
2022/02/20 17:19:56;;;;;;;36.33;13.30;;;;;;;4.71;100.00;99281.31;5134130;56;1136721;-70
2022/02/20 17:25:04;;;;;;;30.23;11.57;;;;;;;4.77;100.00;99270.84;5139774;56;1140871;-69
2022/02/20 17:30:10;;;;;;;37.83;12.40;;;;;;;4.79;100.00;99264.54;5140511;56;1141015;-69
2022/02/20 17:35:15;;;;;;;27.98;9.50;;;;;;;4.84;100.00;99251.12;5133639;56;1140852;-70
2022/02/20 17:40:23;;;;;;;10.08;4.25;;;;;;;4.86;100.00;99253.98;5136607;56;1138977;-69
2022/02/20 17:45:29;;;;;;;20.10;7.58;;;;;;;4.92;100.00;99235.65;5128911;56;1138819;-74
2022/02/20 17:50:35;;;;;;;52.20;28.40;;;;;;;4.97;100.00;99210.42;5113330;56;1136797;-77
2022/02/20 17:55:40;;;;;;;17.60;5.60;;;;;;;5.00;100.00;99201.86;5111304;56;1140810;-77
2022/02/20 18:00:47;;;;;;;18.90;7.43;;;;;;;5.03;100.00;99184.61;5112988;56;1136774;-73
2022/02/20 18:05:53;;;;;;;19.50;7.83;;;;;;;5.10;100.00;99191.03;5106971;56;1136759;-76
2022/02/20 18:10:59;;;;;;;18.97;6.93;;;;;;;5.16;100.00;99188.43;5118396;56;1136560;-76
2022/02/20 18:16:05;;;;;;;22.53;9.93;;;;;;;5.18;100.00;99168.19;5110924;56;1136565;-73
2022/02/20 18:21:13;;;;;;;15.80;7.50;;;;;;;5.29;100.00;99150.67;5144018;56;1136676;-73
2022/02/20 18:26:20;;;;;;;35.63;11.57;;;;;;;5.29;100.00;99150.67;5107058;56;1138711;-75
2022/02/20 18:31:26;;;;;;;20.37;7.92;;;;;;;5.34;100.00;99139.00;5102015;56;1140565;-74
2022/02/20 18:36:32;;;;;;;19.73;7.63;;;;;;;5.38;100.00;99139.09;5117818;56;1136842;-76
2022/02/20 18:41:39;;;;;;;19.90;9.60;;;;;;;5.40;100.00;99130.16;5107665;56;1136617;-77
2022/02/20 18:46:46;;;;;;;27.93;17.73;;;;;;;5.46;100.00;99117.06;5103948;56;1136604;-73
2022/02/20 18:51:51;;;;;;;31.17;11.67;;;;;;;5.52;100.00;99114.77;5120411;56;1138782;-72
2022/02/20 18:56:57;;;;;;;18.27;7.30;;;;;;;5.59;100.00;99098.08;5109410;56;1138895;-76
2022/02/20 19:02:02;;;;;;;52.07;15.03;;;;;;;5.65;100.00;99101.03;5068036;56;1136821;-80
2022/02/20 19:07:08;;;;;;;19.82;7.45;;;;;;;5.70;100.00;99085.41;5080799;55;1138783;-71
2022/02/20 19:12:14;;;;;;;22.47;9.13;;;;;;;5.75;100.00;99070.14;5054183;56;1136672;-75
2022/02/20 19:17:19;;;;;;;24.17;9.57;;;;;;;5.80;100.00;99045.70;5054981;56;1136855;-77
2022/02/20 19:22:25;;;;;;;11.53;6.45;;;;;;;5.86;100.00;99042.55;5048875;56;1138985;-74
2022/02/20 19:27:31;;;;;;;14.85;6.78;;;;;;;5.89;100.00;99035.30;5125913;56;1137019;-73
2022/02/20 19:32:38;;;;;;;14.73;6.60;;;;;;;5.93;100.00;99034.10;5129027;56;1136914;-75
2022/02/20 19:37:44;;;;;;;10.53;5.05;;;;;;;5.97;100.00;99022.37;5124478;56;1138826;-72
2022/02/20 19:42:51;;;;;;;12.43;4.33;;;;;;;6.02;100.00;99019.85;5125396;56;1138952;-74
2022/02/20 19:47:57;;;;;;;13.17;4.97;;;;;;;6.06;100.00;99022.11;5127664;56;1138911;-72
2022/02/20 19:53:04;;;;;;;9.00;4.60;;;;;;;6.12;100.00;99020.74;5126970;56;1139133;-76
2022/02/20 19:58:10;;;;;;;8.70;3.85;;;;;;;6.16;100.00;98995.91;5101185;56;1136643;-69
2022/02/20 20:03:16;;;;;;;17.00;8.43;;;;;;;6.22;100.00;99009.85;5076822;56;1136830;-68
2022/02/20 20:08:22;;;;;;;4.40;3.12;;;;;;;6.27;100.00;98992.73;5088724;56;1138980;-69
2022/02/20 20:13:28;;;;;;;6.70;3.90;;;;;;;6.34;100.00;98976.00;5033665;56;1136986;-70
2022/02/20 20:18:38;;;;;;;10.43;3.73;;;;;;;6.39;100.00;98962.48;5031638;56;1134934;-71
2022/02/20 20:23:44;;;;;;;12.80;3.62;;;;;;;6.41;100.00;98950.06;5027312;56;1139533;-69
2022/02/20 20:28:50;;;;;;;12.70;4.10;;;;;;;6.43;100.00;98963.39;5050792;56;1138829;-69
2022/02/20 20:33:56;;;;;;;12.33;4.90;;;;;;;6.46;100.00;98943.91;5056511;57;1138998;-71
2022/02/20 20:39:03;;;;;;;7.20;3.40;;;;;;;6.47;100.00;98949.04;5069023;56;1138816;-70
2022/02/20 20:44:09;;;;;;;16.30;5.30;;;;;;;6.50;100.00;98940.07;5041144;56;1136852;-70
2022/02/20 20:49:17;;;;;;;11.70;3.97;;;;;;;6.56;100.00;98929.05;5037446;56;1138967;-71
2022/02/20 20:54:23;;;;;;;10.43;4.17;;;;;;;6.58;100.00;98927.92;5042785;56;1138949;-70
2022/02/20 20:59:29;;;;;;;9.73;2.90;;;;;;;6.60;100.00;98919.92;4943102;58;1139078;-69
2022/02/20 21:04:34;;;;;;;10.57;2.77;;;;;;;6.64;100.00;98902.94;5014221;56;1137633;-70
2022/02/20 21:09:40;;;;;;;6.80;2.17;;;;;;;6.68;100.00;98900.39;5016394;56;1247080;-69
2022/02/20 21:14:48;;;;;;;7.33;2.33;;;;;;;6.68;100.00;98892.52;5028903;56;1136866;-69
2022/02/20 21:19:55;;;;;;;9.57;3.40;;;;;;;6.67;100.00;98875.92;5059772;56;1136960;-69
2022/02/20 21:25:04;;;;;;;14.47;4.27;;;;;;;6.66;100.00;98874.73;5054870;57;1136868;-69
2022/02/20 21:30:12;;;;;;;3.80;2.63;;;;;;;6.60;100.00;98866.06;5078226;56;1138786;-70
2022/02/20 21:35:18;;;;;;;2.40;1.97;;;;;;;6.59;100.00;98847.33;4961790;58;1136855;-70
2022/02/20 21:40:24;;;;;;;4.12;2.67;;;;;;;6.59;100.00;98848.16;5081879;56;1137102;-71
2022/02/20 21:45:32;;;;;;;2.07;1.93;;;;;;;6.59;100.00;98832.89;5139931;56;1136871;-69
2022/02/20 21:50:37;;;;;;;4.80;1.77;;;;;;;6.58;100.00;98822.86;5133625;55;1136928;-72
2022/02/20 21:55:43;;;;;;;4.53;2.10;;;;;;;6.57;100.00;98805.44;5119788;56;1136760;-71
2022/02/20 22:00:49;;;;;;;6.83;2.30;;;;;;;6.57;100.00;98812.00;5108962;56;1136847;-70
2022/02/20 22:05:55;;;;;;;2.13;1.70;;;;;;;6.59;100.00;98800.88;5104725;56;1136870;-72
2022/02/20 22:11:00;;;;;;;2.90;1.80;;;;;;;6.46;100.00;98771.42;5029602;57;1137090;-69
2022/02/20 22:16:08;;;;;;;5.03;1.97;;;;;;;6.59;100.00;98776.41;5097694;56;1136779;-71
2022/02/20 22:21:14;;;;;;;7.23;1.80;;;;;;;6.59;100.00;98759.34;5121188;56;1136821;-69
2022/02/20 22:26:20;;;;;;;6.47;3.20;;;;;;;6.59;100.00;98759.34;5122314;56;1136921;-68
2022/02/20 22:31:25;;;;;;;4.55;2.00;;;;;;;6.59;100.00;98744.89;5121979;56;1136957;-71
2022/02/20 22:36:33;;;;;;;6.65;2.00;;;;;;;6.58;100.00;98740.61;5121608;56;1136966;-71
2022/02/20 22:41:39;;;;;;;2.00;1.63;;;;;;;6.57;100.00;98736.35;5121990;56;1136851;-73
2022/02/20 22:46:47;;;;;;;2.58;1.40;;;;;;;6.57;100.00;98720.59;5121677;56;1136857;-69
2022/02/20 22:51:52;;;;;;;4.77;2.30;;;;;;;6.57;100.00;98708.77;5121408;56;1136884;-70
2022/02/20 22:56:59;;;;;;;4.83;2.07;;;;;;;6.58;100.00;98699.90;5121341;56;1136805;-69
2022/02/20 23:02:05;;;;;;;3.83;2.10;;;;;;;6.57;100.00;98704.83;5063173;56;1136607;-69
2022/02/20 23:07:10;;;;;;;3.13;1.87;;;;;;;6.59;100.00;98678.75;4980758;57;1136828;-71
2022/02/20 23:12:16;;;;;;;2.97;1.50;;;;;;;6.61;100.00;98674.19;4991729;58;1136665;-68
2022/02/20 23:17:22;;;;;;;1.70;1.60;;;;;;;6.61;100.00;98646.61;4974319;58;1136656;-69
2022/02/20 23:22:29;;;;;;;2.45;2.25;;;;;;;6.62;100.00;98657.47;4978992;57;1136916;-69